Time;durP1;ratioP1;P1;durP2;ratioP2;P2;SDS_P1;SDS_P2;PMS_P1;PMS_P2;Temp;Humidity;BMP_temperature;BMP_pressure;BME280_temperature;BME280_humidity;BME280_pressure;Samples;Min_cycle;Max_cycle;Signal;HPM_P1;HPM_P2
2021/09/19 00:01:31;;;;;;;104.43;31.73;;;;;;;;;;5053523;28;20020;-77
2021/09/19 00:03:56;;;;;;;109.65;33.35;;;;;;;;;;5053524;28;20029;-75
2021/09/19 00:06:22;;;;;;;96.55;30.33;;;;;;;;;;5053186;28;20032;-75
2021/09/19 00:08:47;;;;;;;128.63;34.90;;;;;;;;;;5053348;28;20037;-75
2021/09/19 00:11:12;;;;;;;118.05;32.88;;;;;;;;;;5050269;28;20417;-76
2021/09/19 00:13:37;;;;;;;89.93;27.80;;;;;;;;;;5052684;28;20128;-77
2021/09/19 00:16:03;;;;;;;125.38;32.63;;;;;;;;;;5053574;28;20020;-76
2021/09/19 00:18:28;;;;;;;303.25;40.13;;;;;;;;;;5052960;28;20032;-75
2021/09/19 00:20:53;;;;;;;235.77;39.03;;;;;;;;;;5053286;28;20021;-75
2021/09/19 00:23:19;;;;;;;170.43;38.00;;;;;;;;;;5053288;28;20025;-75
2021/09/19 00:25:44;;;;;;;273.92;45.38;;;;;;;;;;5053191;28;20041;-75
2021/09/19 00:28:10;;;;;;;459.35;47.20;;;;;;;;;;5053192;28;20083;-75
2021/09/19 00:30:35;;;;;;;189.15;34.10;;;;;;;;;;5053264;28;20017;-75
2021/09/19 00:33:00;;;;;;;173.85;34.03;;;;;;;;;;5053157;28;20053;-75
2021/09/19 00:35:26;;;;;;;199.40;39.13;;;;;;;;;;5053224;28;20086;-75
2021/09/19 00:37:52;;;;;;;104.45;30.05;;;;;;;;;;5053082;28;20044;-75
2021/09/19 00:40:17;;;;;;;135.70;33.00;;;;;;;;;;5053148;28;20055;-75
2021/09/19 00:42:43;;;;;;;175.20;34.15;;;;;;;;;;5053004;28;20373;-75
2021/09/19 00:45:10;;;;;;;132.88;31.52;;;;;;;;;;5053168;28;20527;-75
2021/09/19 00:47:36;;;;;;;171.27;34.05;;;;;;;;;;5052923;28;20492;-75
2021/09/19 00:50:02;;;;;;;145.90;31.70;;;;;;;;;;5053080;28;20017;-75
2021/09/19 00:52:28;;;;;;;163.25;33.47;;;;;;;;;;5054780;28;20063;-75
2021/09/19 00:54:53;;;;;;;251.88;41.30;;;;;;;;;;5056973;28;20029;-75
2021/09/19 00:57:18;;;;;;;102.53;28.70;;;;;;;;;;5056985;28;20033;-76
2021/09/19 00:59:46;;;;;;;83.13;28.17;;;;;;;;;;5056943;28;20350;-75
2021/09/19 01:02:12;;;;;;;100.38;30.63;;;;;;;;;;5056932;28;20043;-75
2021/09/19 01:04:38;;;;;;;62.22;23.10;;;;;;;;;;5056774;28;20389;-77
2021/09/19 01:07:03;;;;;;;64.82;23.35;;;;;;;;;;5056781;28;20369;-76
2021/09/19 01:09:29;;;;;;;85.07;27.48;;;;;;;;;;5056404;28;20039;-75
2021/09/19 01:11:55;;;;;;;64.93;23.02;;;;;;;;;;5056711;28;20075;-75
2021/09/19 01:14:22;;;;;;;116.82;32.25;;;;;;;;;;5056358;28;20464;-75
2021/09/19 01:16:48;;;;;;;104.50;31.85;;;;;;;;;;5056549;28;20064;-75
2021/09/19 01:19:18;;;;;;;106.35;29.83;;;;;;;;;;5055330;28;20053;-75
2021/09/19 01:21:43;;;;;;;55.28;22.60;;;;;;;;;;5054652;28;20373;-75
2021/09/19 01:24:09;;;;;;;78.00;26.73;;;;;;;;;;5056453;28;20121;-75
2021/09/19 01:26:34;;;;;;;64.50;24.42;;;;;;;;;;5056581;28;20034;-75
2021/09/19 01:29:00;;;;;;;64.13;23.38;;;;;;;;;;5056318;28;20032;-75
2021/09/19 01:31:25;;;;;;;57.83;22.13;;;;;;;;;;5056117;28;20061;-75
2021/09/19 01:33:51;;;;;;;83.85;25.42;;;;;;;;;;5056259;28;20128;-75
2021/09/19 01:36:16;;;;;;;68.30;22.17;;;;;;;;;;5056648;28;20021;-75
2021/09/19 01:38:41;;;;;;;82.22;26.33;;;;;;;;;;5056138;28;20029;-75
2021/09/19 01:41:07;;;;;;;78.22;24.13;;;;;;;;;;5055905;28;20021;-75
2021/09/19 01:43:32;;;;;;;86.55;26.58;;;;;;;;;;5056166;28;20175;-76
2021/09/19 01:46:01;;;;;;;76.15;24.23;;;;;;;;;;5055725;28;20412;-75
2021/09/19 01:48:26;;;;;;;81.65;25.15;;;;;;;;;;5055780;28;20033;-76
2021/09/19 01:50:51;;;;;;;76.50;25.27;;;;;;;;;;5056031;28;20021;-75
2021/09/19 01:53:20;;;;;;;105.72;28.08;;;;;;;;;;5055964;28;20106;-75
2021/09/19 01:55:45;;;;;;;71.22;24.52;;;;;;;;;;5055571;28;20446;-75
2021/09/19 01:58:10;;;;;;;71.07;24.60;;;;;;;;;;5055609;28;20052;-75
2021/09/19 02:00:35;;;;;;;69.20;23.25;;;;;;;;;;5055548;28;20037;-75
2021/09/19 02:03:01;;;;;;;63.08;23.60;;;;;;;;;;5055203;28;20032;-75
2021/09/19 02:05:26;;;;;;;54.08;21.52;;;;;;;;;;5055735;28;20126;-75
2021/09/19 02:07:51;;;;;;;52.22;20.30;;;;;;;;;;5055569;28;20123;-75
2021/09/19 02:10:18;;;;;;;52.22;19.52;;;;;;;;;;5055635;28;20336;-75
2021/09/19 02:12:43;;;;;;;55.33;20.02;;;;;;;;;;5055235;28;20047;-75
2021/09/19 02:15:10;;;;;;;50.10;20.23;;;;;;;;;;5055490;28;20040;-74
2021/09/19 02:17:35;;;;;;;70.57;23.80;;;;;;;;;;5055551;28;20061;-76
2021/09/19 02:20:01;;;;;;;90.07;25.23;;;;;;;;;;5055442;28;20024;-75
2021/09/19 02:22:26;;;;;;;46.58;19.55;;;;;;;;;;5055062;28;20042;-75
2021/09/19 02:24:52;;;;;;;72.70;23.10;;;;;;;;;;5055556;28;20091;-75
2021/09/19 02:27:20;;;;;;;63.13;21.67;;;;;;;;;;5055607;28;20033;-75
2021/09/19 02:29:45;;;;;;;63.67;22.48;;;;;;;;;;5055216;28;20044;-75
2021/09/19 02:32:10;;;;;;;49.22;18.90;;;;;;;;;;5054917;28;20044;-75
2021/09/19 02:34:36;;;;;;;60.28;22.58;;;;;;;;;;5055270;28;20076;-75
2021/09/19 02:37:01;;;;;;;82.65;25.38;;;;;;;;;;5054987;28;20512;-75
2021/09/19 02:39:26;;;;;;;104.82;27.98;;;;;;;;;;5053838;28;20025;-76
2021/09/19 02:41:52;;;;;;;77.70;24.40;;;;;;;;;;5054964;28;20460;-76
2021/09/19 02:44:17;;;;;;;66.68;22.77;;;;;;;;;;5055000;28;20488;-75
2021/09/19 02:46:42;;;;;;;61.65;21.42;;;;;;;;;;5053620;28;20107;-75
2021/09/19 02:49:07;;;;;;;63.13;20.92;;;;;;;;;;5054986;28;20449;-75
2021/09/19 02:51:33;;;;;;;55.00;19.30;;;;;;;;;;5055099;28;20441;-75
2021/09/19 02:53:58;;;;;;;35.90;15.38;;;;;;;;;;5054755;28;20449;-75
2021/09/19 02:56:23;;;;;;;40.67;17.50;;;;;;;;;;5054500;28;20021;-76
2021/09/19 02:58:49;;;;;;;55.63;20.33;;;;;;;;;;5054974;28;20040;-75
2021/09/19 03:01:14;;;;;;;55.00;20.05;;;;;;;;;;5053870;28;20017;-75
2021/09/19 03:03:39;;;;;;;57.22;20.75;;;;;;;;;;5054903;28;20017;-75
2021/09/19 03:06:05;;;;;;;59.42;21.38;;;;;;;;;;5054526;28;20432;-75
2021/09/19 03:08:30;;;;;;;39.35;16.92;;;;;;;;;;5054338;28;20040;-75
2021/09/19 03:10:55;;;;;;;39.20;17.08;;;;;;;;;;5054529;28;20029;-75
2021/09/19 03:13:21;;;;;;;24.95;12.90;;;;;;;;;;5054688;28;20397;-75
2021/09/19 03:15:46;;;;;;;43.58;16.25;;;;;;;;;;5053443;28;20023;-75
2021/09/19 03:18:11;;;;;;;51.40;19.48;;;;;;;;;;5054435;28;20473;-75
2021/09/19 03:20:36;;;;;;;32.75;15.13;;;;;;;;;;5054351;28;20044;-75
2021/09/19 03:23:03;;;;;;;38.90;16.10;;;;;;;;;;5053928;28;20032;-75
2021/09/19 03:25:28;;;;;;;34.13;14.90;;;;;;;;;;5054249;28;20457;-75
2021/09/19 03:27:53;;;;;;;43.53;17.33;;;;;;;;;;5054038;28;20049;-76
2021/09/19 03:30:18;;;;;;;41.10;16.88;;;;;;;;;;5054112;28;20021;-75
2021/09/19 03:32:45;;;;;;;38.05;15.40;;;;;;;;;;5054277;28;20128;-75
2021/09/19 03:35:11;;;;;;;33.45;15.40;;;;;;;;;;5053867;28;20048;-76
2021/09/19 03:37:36;;;;;;;35.60;14.52;;;;;;;;;;5054040;28;20021;-76
2021/09/19 03:40:02;;;;;;;35.80;16.05;;;;;;;;;;5053656;28;20021;-75
2021/09/19 03:42:28;;;;;;;40.78;16.00;;;;;;;;;;5053899;28;20532;-76
2021/09/19 03:44:53;;;;;;;13.60;6.30;;;;;;;;;;5053854;28;20073;-75
2021/09/19 03:47:18;;;;;;;18.90;8.07;;;;;;;;;;5053973;28;20013;-76
2021/09/19 03:49:44;;;;;;;10.73;5.30;;;;;;;;;;5053797;28;20041;-75
2021/09/19 03:52:09;;;;;;;20.48;8.27;;;;;;;;;;5053614;28;20135;-76
2021/09/19 03:54:35;;;;;;;12.80;3.90;;;;;;;;;;5053776;28;20020;-75
2021/09/19 03:57:01;;;;;;;9.45;4.28;;;;;;;;;;5053665;28;20041;-76
2021/09/19 03:59:26;;;;;;;9.20;4.32;;;;;;;;;;5053586;28;20029;-75
2021/09/19 04:01:52;;;;;;;12.45;3.17;;;;;;;;;;5053838;28;20035;-75
2021/09/19 04:04:17;;;;;;;12.75;3.42;;;;;;;;;;5053213;28;20035;-75
2021/09/19 04:06:42;;;;;;;11.52;3.35;;;;;;;;;;5053543;28;20005;-76
2021/09/19 04:09:08;;;;;;;11.85;3.40;;;;;;;;;;5053501;28;20033;-75
2021/09/19 04:11:33;;;;;;;15.95;5.55;;;;;;;;;;5053482;28;20112;-76
2021/09/19 04:13:58;;;;;;;10.35;3.80;;;;;;;;;;5053559;28;20446;-76
2021/09/19 04:16:23;;;;;;;12.80;3.13;;;;;;;;;;5053737;28;20021;-75
2021/09/19 04:18:49;;;;;;;6.10;2.47;;;;;;;;;;5053448;28;20040;-75
2021/09/19 04:21:15;;;;;;;6.47;2.75;;;;;;;;;;5053393;28;20449;-75
2021/09/19 04:23:40;;;;;;;12.35;3.58;;;;;;;;;;5053503;28;20388;-75
2021/09/19 04:26:05;;;;;;;7.38;3.05;;;;;;;;;;5053220;28;20098;-75
2021/09/19 04:28:31;;;;;;;12.80;3.10;;;;;;;;;;5053382;28;20060;-75
2021/09/19 04:30:56;;;;;;;6.82;2.70;;;;;;;;;;5052877;28;20025;-75
2021/09/19 04:33:21;;;;;;;8.77;3.20;;;;;;;;;;5053153;28;20094;-76
2021/09/19 04:35:46;;;;;;;8.20;3.00;;;;;;;;;;5053034;28;20021;-76
2021/09/19 04:38:13;;;;;;;11.93;3.53;;;;;;;;;;5053247;28;20017;-75
2021/09/19 04:40:38;;;;;;;9.18;2.90;;;;;;;;;;5051844;28;20386;-76
2021/09/19 04:43:03;;;;;;;8.80;3.00;;;;;;;;;;5053202;28;20021;-76
2021/09/19 04:45:28;;;;;;;14.95;3.00;;;;;;;;;;5053275;28;20381;-76
2021/09/19 04:47:54;;;;;;;11.57;3.30;;;;;;;;;;5053154;28;20051;-76
2021/09/19 04:50:19;;;;;;;13.82;3.58;;;;;;;;;;5053289;28;20025;-75
2021/09/19 04:52:44;;;;;;;5.43;2.63;;;;;;;;;;5052885;28;20067;-77
2021/09/19 04:55:10;;;;;;;9.75;2.80;;;;;;;;;;5052751;28;20104;-75
2021/09/19 04:57:35;;;;;;;10.70;2.95;;;;;;;;;;5053128;28;20031;-75
2021/09/19 05:00:01;;;;;;;10.18;3.25;;;;;;;;;;5052983;28;20458;-75
2021/09/19 05:02:26;;;;;;;12.05;3.13;;;;;;;;;;5052852;28;20037;-76
2021/09/19 05:04:51;;;;;;;7.55;2.80;;;;;;;;;;5052983;28;20053;-75
2021/09/19 05:07:17;;;;;;;9.65;3.00;;;;;;;;;;5053018;28;20025;-76
2021/09/19 05:09:42;;;;;;;6.70;3.08;;;;;;;;;;5052885;28;20082;-76
2021/09/19 05:12:08;;;;;;;11.65;2.50;;;;;;;;;;5052842;28;20025;-76
2021/09/19 05:14:33;;;;;;;7.63;2.50;;;;;;;;;;5052927;28;20013;-76
2021/09/19 05:16:58;;;;;;;7.18;2.90;;;;;;;;;;5052756;28;20032;-75
2021/09/19 05:19:23;;;;;;;10.98;3.30;;;;;;;;;;5052870;28;20021;-76
2021/09/19 05:21:49;;;;;;;10.65;2.70;;;;;;;;;;5052768;28;20021;-76
2021/09/19 05:24:14;;;;;;;9.68;2.65;;;;;;;;;;5052843;28;20033;-75
2021/09/19 05:26:39;;;;;;;9.77;2.60;;;;;;;;;;5052963;28;20025;-75
2021/09/19 05:29:05;;;;;;;9.32;3.05;;;;;;;;;;5052413;28;20036;-76
2021/09/19 05:31:30;;;;;;;8.00;2.55;;;;;;;;;;5052625;28;20040;-75
2021/09/19 05:33:56;;;;;;;8.07;2.20;;;;;;;;;;5052925;28;20413;-75
2021/09/19 05:36:21;;;;;;;8.80;2.45;;;;;;;;;;5052600;28;20028;-75
2021/09/19 05:38:46;;;;;;;14.93;3.33;;;;;;;;;;5054646;28;20029;-75
2021/09/19 05:41:11;;;;;;;9.95;2.40;;;;;;;;;;5056259;28;20028;-75
2021/09/19 05:43:37;;;;;;;8.63;3.00;;;;;;;;;;5056292;28;20068;-75
2021/09/19 05:46:02;;;;;;;9.45;2.70;;;;;;;;;;5055825;28;20541;-76
2021/09/19 05:48:27;;;;;;;10.98;2.70;;;;;;;;;;5055923;28;20028;-76
2021/09/19 05:50:53;;;;;;;12.00;3.00;;;;;;;;;;5056095;28;20021;-76
2021/09/19 05:53:18;;;;;;;8.05;2.70;;;;;;;;;;5055997;28;20056;-75
2021/09/19 05:55:43;;;;;;;9.85;2.65;;;;;;;;;;5055928;28;20033;-75
2021/09/19 05:58:09;;;;;;;6.75;2.60;;;;;;;;;;5055662;28;20021;-75
2021/09/19 06:00:34;;;;;;;9.32;2.70;;;;;;;;;;5055796;28;20063;-75
2021/09/19 06:02:59;;;;;;;7.93;2.53;;;;;;;;;;5055744;28;20075;-75
2021/09/19 06:05:25;;;;;;;9.15;2.80;;;;;;;;;;5055806;28;20021;-75
2021/09/19 06:07:50;;;;;;;13.20;2.60;;;;;;;;;;5055522;28;20045;-75
2021/09/19 06:10:15;;;;;;;8.98;2.83;;;;;;;;;;5055827;28;20021;-76
2021/09/19 06:12:41;;;;;;;7.45;2.75;;;;;;;;;;5055144;28;20025;-76
2021/09/19 06:15:06;;;;;;;13.63;3.28;;;;;;;;;;5055502;28;20124;-75
2021/09/19 06:17:32;;;;;;;8.43;3.30;;;;;;;;;;5055389;28;20035;-75
2021/09/19 06:19:57;;;;;;;11.27;2.97;;;;;;;;;;5055386;28;20088;-75
2021/09/19 06:22:22;;;;;;;12.90;3.42;;;;;;;;;;5055129;28;20060;-75
2021/09/19 06:24:48;;;;;;;9.00;2.97;;;;;;;;;;5055486;28;20023;-76
2021/09/19 06:27:13;;;;;;;6.88;2.60;;;;;;;;;;5055458;28;20021;-76
2021/09/19 06:29:39;;;;;;;9.63;2.72;;;;;;;;;;5055587;28;20389;-75
2021/09/19 06:32:05;;;;;;;6.78;2.67;;;;;;;;;;5055155;28;20024;-75
2021/09/19 06:34:30;;;;;;;11.52;3.58;;;;;;;;;;5054935;28;20039;-75
2021/09/19 06:36:56;;;;;;;8.15;2.95;;;;;;;;;;5054939;28;20080;-76
2021/09/19 06:39:21;;;;;;;11.45;2.72;;;;;;;;;;5055211;28;20021;-75
2021/09/19 06:41:46;;;;;;;12.60;2.65;;;;;;;;;;5054816;28;20024;-75
2021/09/19 06:44:11;;;;;;;10.73;2.67;;;;;;;;;;5054737;28;20041;-75
2021/09/19 06:46:37;;;;;;;9.98;2.70;;;;;;;;;;5054940;28;20021;-75
2021/09/19 06:49:02;;;;;;;7.70;2.38;;;;;;;;;;5053579;28;20068;-75
2021/09/19 06:51:28;;;;;;;8.88;2.47;;;;;;;;;;5054526;28;20381;-75
2021/09/19 06:53:54;;;;;;;9.00;2.88;;;;;;;;;;5054963;28;20127;-75
2021/09/19 06:56:21;;;;;;;9.73;2.03;;;;;;;;;;5054860;28;20029;-76
2021/09/19 06:58:46;;;;;;;11.32;2.03;;;;;;;;;;5054704;28;20167;-75
2021/09/19 07:01:11;;;;;;;11.15;2.40;;;;;;;;;;5054665;28;20059;-75
2021/09/19 07:03:37;;;;;;;10.52;2.70;;;;;;;;;;5054448;28;20024;-75
2021/09/19 07:06:02;;;;;;;9.15;2.20;;;;;;;;;;5054410;28;20024;-75
2021/09/19 07:08:27;;;;;;;8.68;1.83;;;;;;;;;;5054394;28;20520;-77
2021/09/19 07:10:53;;;;;;;10.00;1.98;;;;;;;;;;5054587;28;20024;-76
2021/09/19 07:13:18;;;;;;;6.93;1.70;;;;;;;;;;5054529;28;20033;-76
2021/09/19 07:15:44;;;;;;;10.90;2.50;;;;;;;;;;5054185;28;20469;-75
2021/09/19 07:18:12;;;;;;;9.95;1.85;;;;;;;;;;5054098;28;20025;-76
2021/09/19 07:20:37;;;;;;;8.15;1.75;;;;;;;;;;5054271;28;20040;-75
2021/09/19 07:23:03;;;;;;;8.27;1.55;;;;;;;;;;5054185;28;20028;-76
2021/09/19 07:25:28;;;;;;;4.75;1.73;;;;;;;;;;5053925;28;20032;-75
2021/09/19 07:27:53;;;;;;;3.90;1.23;;;;;;;;;;5054227;28;20076;-76
2021/09/19 07:30:19;;;;;;;3.85;1.17;;;;;;;;;;5053480;28;20124;-76
2021/09/19 07:32:44;;;;;;;6.50;1.83;;;;;;;;;;5053604;28;20493;-76
2021/09/19 07:35:09;;;;;;;4.35;1.30;;;;;;;;;;5054059;28;20036;-76
2021/09/19 07:37:35;;;;;;;10.07;1.60;;;;;;;;;;5054257;28;20028;-76
2021/09/19 07:40:01;;;;;;;5.75;1.20;;;;;;;;;;5053774;28;20025;-76
2021/09/19 07:42:26;;;;;;;5.57;1.38;;;;;;;;;;5052768;28;20485;-77
2021/09/19 07:44:52;;;;;;;10.95;1.45;;;;;;;;;;5053532;28;20021;-77
2021/09/19 07:47:17;;;;;;;5.55;1.60;;;;;;;;;;5053927;28;20032;-76
2021/09/19 07:49:43;;;;;;;4.60;1.20;;;;;;;;;;5053787;28;20119;-76
2021/09/19 07:52:08;;;;;;;6.45;1.40;;;;;;;;;;5053788;28;20410;-76
2021/09/19 07:54:34;;;;;;;4.38;1.15;;;;;;;;;;5054001;28;20020;-76
2021/09/19 07:56:59;;;;;;;7.43;1.50;;;;;;;;;;5053380;28;20112;-77
2021/09/19 07:59:24;;;;;;;5.38;1.40;;;;;;;;;;5053683;28;20021;-76
2021/09/19 08:01:50;;;;;;;4.68;1.33;;;;;;;;;;5053298;28;20067;-78
2021/09/19 08:04:15;;;;;;;6.82;1.83;;;;;;;;;;5053586;28;20060;-76
2021/09/19 08:06:40;;;;;;;5.95;1.40;;;;;;;;;;5053509;28;20067;-76
2021/09/19 08:09:06;;;;;;;7.75;1.17;;;;;;;;;;5062817;28;20089;-76
2021/09/19 08:11:31;;;;;;;4.88;1.40;;;;;;;;;;5062549;28;20033;-77
2021/09/19 08:14:05;;;;;;;4.88;1.30;;;;;;;;;;5067492;28;20047;-76
2021/09/19 08:16:30;;;;;;;3.50;1.00;;;;;;;;;;5054641;28;20025;-74
2021/09/19 08:18:55;;;;;;;5.25;1.20;;;;;;;;;;5053329;28;20079;-74
2021/09/19 08:21:21;;;;;;;5.53;1.65;;;;;;;;;;5053706;28;20029;-74
2021/09/19 08:23:46;;;;;;;4.45;1.27;;;;;;;;;;5053350;28;20021;-74
2021/09/19 08:26:11;;;;;;;3.97;1.48;;;;;;;;;;5053560;28;20496;-74
2021/09/19 08:28:37;;;;;;;4.15;1.30;;;;;;;;;;5051982;28;20414;-75
2021/09/19 08:31:02;;;;;;;5.55;1.70;;;;;;;;;;5052990;28;20476;-75
2021/09/19 08:33:27;;;;;;;5.90;1.67;;;;;;;;;;5046857;28;20060;-78
2021/09/19 08:35:54;;;;;;;5.32;1.30;;;;;;;;;;5053030;28;20013;-78
2021/09/19 08:38:19;;;;;;;6.22;1.42;;;;;;;;;;5052880;28;20458;-77
2021/09/19 08:40:44;;;;;;;8.52;1.30;;;;;;;;;;5053119;28;20033;-77
2021/09/19 08:43:10;;;;;;;4.53;1.70;;;;;;;;;;5051952;28;20124;-77
2021/09/19 08:45:35;;;;;;;4.63;1.40;;;;;;;;;;5053208;28;20446;-77
2021/09/19 08:48:00;;;;;;;3.92;1.30;;;;;;;;;;5053278;28;20087;-77
2021/09/19 08:50:26;;;;;;;3.50;1.50;;;;;;;;;;5052833;28;20033;-77
2021/09/19 08:52:51;;;;;;;3.63;1.17;;;;;;;;;;5053018;28;20329;-79
2021/09/19 08:55:16;;;;;;;5.25;1.08;;;;;;;;;;5052647;28;20396;-78
2021/09/19 08:57:42;;;;;;;4.22;1.40;;;;;;;;;;5053226;28;20334;-78
2021/09/19 09:00:09;;;;;;;6.20;1.38;;;;;;;;;;5053074;28;20469;-79
2021/09/19 09:02:46;;;;;;;5.70;1.33;;;;;;;;;;5048439;28;20029;-78
2021/09/19 09:05:14;;;;;;;4.95;1.00;;;;;;;;;;5052876;28;20017;-78
2021/09/19 09:07:39;;;;;;;5.45;1.40;;;;;;;;;;5052602;28;20040;-78
2021/09/19 09:10:04;;;;;;;4.83;1.50;;;;;;;;;;5052922;28;20025;-78
2021/09/19 09:12:30;;;;;;;3.38;1.10;;;;;;;;;;5053123;28;20266;-78
2021/09/19 09:14:55;;;;;;;6.00;1.58;;;;;;;;;;5056503;28;20033;-78
2021/09/19 09:17:25;;;;;;;3.30;1.48;;;;;;;;;;5056010;28;20519;-79
2021/09/19 09:19:51;;;;;;;4.18;1.30;;;;;;;;;;5054214;28;20021;-79
2021/09/19 09:22:24;;;;;;;6.93;1.27;;;;;;;;;;5054576;28;20048;-79
2021/09/19 09:25:09;;;;;;;6.78;1.55;;;;;;;;;;5054200;28;20570;-79
2021/09/19 09:27:39;;;;;;;5.88;1.65;;;;;;;;;;5054070;28;20474;-79
2021/09/19 09:30:06;;;;;;;5.45;1.30;;;;;;;;;;5054487;28;20056;-78
2021/09/19 09:32:31;;;;;;;5.82;1.70;;;;;;;;;;5054728;28;20049;-78
2021/09/19 09:35:12;;;;;;;8.27;1.97;;;;;;;;;;5056341;28;20504;-78
2021/09/19 09:37:39;;;;;;;4.82;1.23;;;;;;;;;;5056083;28;20285;-78
2021/09/19 09:40:17;;;;;;;6.45;1.23;;;;;;;;;;5056242;28;20029;-78
2021/09/19 09:43:09;;;;;;;5.13;1.33;;;;;;;;;;5056171;28;20033;-78
2021/09/19 09:45:35;;;;;;;6.15;1.25;;;;;;;;;;5054491;28;20047;-78
2021/09/19 09:48:01;;;;;;;5.30;1.40;;;;;;;;;;5056012;28;20037;-78
2021/09/19 09:50:27;;;;;;;4.45;1.27;;;;;;;;;;5056055;28;20100;-78
2021/09/19 09:53:12;;;;;;;4.25;1.40;;;;;;;;;;5056057;28;20116;-78
2021/09/19 09:55:44;;;;;;;3.22;1.50;;;;;;;;;;5056087;28;20029;-78
2021/09/19 09:58:13;;;;;;;8.13;1.50;;;;;;;;;;5056014;28;20036;-78
2021/09/19 10:00:38;;;;;;;5.28;1.63;;;;;;;;;;5056208;28;20036;-78
2021/09/19 10:03:04;;;;;;;4.47;1.33;;;;;;;;;;5055530;28;20477;-79
2021/09/19 10:05:29;;;;;;;5.00;1.38;;;;;;;;;;5055859;28;20025;-78
2021/09/19 10:07:55;;;;;;;5.90;1.63;;;;;;;;;;5055747;28;20068;-79
2021/09/19 10:10:21;;;;;;;11.55;1.50;;;;;;;;;;5055699;28;20078;-78
2021/09/19 10:12:47;;;;;;;8.02;1.65;;;;;;;;;;5055721;28;20029;-77
2021/09/19 10:15:13;;;;;;;5.65;1.30;;;;;;;;;;5055585;28;20037;-78
2021/09/19 10:17:38;;;;;;;5.13;1.30;;;;;;;;;;5055568;28;20025;-78
2021/09/19 10:20:09;;;;;;;3.22;1.20;;;;;;;;;;5055430;28;20033;-77
2021/09/19 10:22:35;;;;;;;7.15;1.50;;;;;;;;;;5054344;28;20025;-77
2021/09/19 10:25:01;;;;;;;10.63;1.92;;;;;;;;;;5055139;28;20028;-77
2021/09/19 10:27:30;;;;;;;5.80;1.50;;;;;;;;;;5055413;28;20033;-77
2021/09/19 10:30:06;;;;;;;7.45;1.60;;;;;;;;;;5055269;28;20048;-77
2021/09/19 10:32:39;;;;;;;7.20;1.42;;;;;;;;;;5055109;28;20056;-77
2021/09/19 10:35:12;;;;;;;4.53;1.20;;;;;;;;;;5055228;28;20037;-77
2021/09/19 10:37:50;;;;;;;5.72;1.35;;;;;;;;;;5055108;28;20035;-77
2021/09/19 10:40:35;;;;;;;4.72;2.10;;;;;;;;;;5055037;28;20045;-77
2021/09/19 10:43:21;;;;;;;8.48;1.88;;;;;;;;;;5055140;28;20047;-77
2021/09/19 10:45:50;;;;;;;10.70;1.73;;;;;;;;;;5054406;28;20067;-77
2021/09/19 10:48:28;;;;;;;3.05;1.13;;;;;;;;;;5054739;28;20769;-77
2021/09/19 10:51:07;;;;;;;7.57;2.67;;;;;;;;;;5054973;28;20033;-77
2021/09/19 10:53:44;;;;;;;8.73;1.33;;;;;;;;;;5054792;28;20033;-77
2021/09/19 10:56:10;;;;;;;7.55;1.33;;;;;;;;;;5054794;28;20029;-77
2021/09/19 10:58:45;;;;;;;7.53;1.70;;;;;;;;;;5054814;28;20102;-77
2021/09/19 11:01:14;;;;;;;6.75;1.30;;;;;;;;;;5053333;28;20385;-76
2021/09/19 11:03:40;;;;;;;8.27;1.95;;;;;;;;;;5053377;28;20452;-76
2021/09/19 11:06:19;;;;;;;5.80;1.42;;;;;;;;;;5054513;28;20043;-77
2021/09/19 11:08:45;;;;;;;4.63;1.10;;;;;;;;;;5054415;28;20127;-77
2021/09/19 11:11:11;;;;;;;4.65;1.38;;;;;;;;;;5054541;28;20496;-77
2021/09/19 11:13:36;;;;;;;5.18;1.30;;;;;;;;;;5054543;28;20035;-76
2021/09/19 11:16:01;;;;;;;5.60;1.60;;;;;;;;;;5054590;28;20103;-77
2021/09/19 11:18:27;;;;;;;6.35;1.25;;;;;;;;;;5054474;28;20041;-76
2021/09/19 11:21:10;;;;;;;8.73;1.73;;;;;;;;;;5054344;28;20056;-76
2021/09/19 11:23:37;;;;;;;6.82;1.42;;;;;;;;;;5054235;28;20061;-76
2021/09/19 11:26:03;;;;;;;5.90;1.55;;;;;;;;;;5054213;28;20025;-77
2021/09/19 11:28:28;;;;;;;6.93;1.58;;;;;;;;;;5054172;28;20024;-77
2021/09/19 11:30:57;;;;;;;6.18;1.38;;;;;;;;;;5054165;28;20051;-77
2021/09/19 11:33:23;;;;;;;8.93;2.05;;;;;;;;;;5054025;28;20041;-76
2021/09/19 11:35:48;;;;;;;7.72;1.45;;;;;;;;;;5053479;28;20020;-76
2021/09/19 11:38:17;;;;;;;5.72;1.30;;;;;;;;;;5053945;28;20029;-77
2021/09/19 11:40:43;;;;;;;8.75;1.30;;;;;;;;;;5053934;28;20044;-76
2021/09/19 11:43:08;;;;;;;4.15;1.60;;;;;;;;;;5053905;28;20017;-76
2021/09/19 11:45:34;;;;;;;7.43;1.27;;;;;;;;;;5053841;28;20416;-76
2021/09/19 11:48:00;;;;;;;7.30;1.52;;;;;;;;;;5053755;28;20068;-77
2021/09/19 11:50:25;;;;;;;7.30;1.40;;;;;;;;;;5054243;28;20017;-76
2021/09/19 11:52:53;;;;;;;6.47;1.65;;;;;;;;;;5053525;28;20036;-77
2021/09/19 11:55:20;;;;;;;9.38;1.63;;;;;;;;;;5053372;28;20041;-76
2021/09/19 11:57:45;;;;;;;8.07;1.98;;;;;;;;;;5053839;28;20021;-77
2021/09/19 12:00:11;;;;;;;7.05;1.13;;;;;;;;;;5052379;28;20033;-77
2021/09/19 12:02:39;;;;;;;7.25;1.50;;;;;;;;;;5053663;28;20036;-76
2021/09/19 12:05:05;;;;;;;4.78;1.20;;;;;;;;;;5053415;28;20028;-77
2021/09/19 12:07:30;;;;;;;4.38;1.17;;;;;;;;;;5053607;28;20033;-77
2021/09/19 12:09:55;;;;;;;4.60;1.38;;;;;;;;;;5053186;28;20473;-77
2021/09/19 12:12:21;;;;;;;8.80;1.60;;;;;;;;;;5053424;28;20063;-77
2021/09/19 12:14:50;;;;;;;5.90;1.27;;;;;;;;;;5053446;28;20370;-77
2021/09/19 12:17:22;;;;;;;5.15;1.23;;;;;;;;;;5049596;28;20119;-77
2021/09/19 12:19:48;;;;;;;6.57;1.52;;;;;;;;;;5052594;28;20066;-77
2021/09/19 12:22:17;;;;;;;6.57;1.20;;;;;;;;;;5052948;28;20032;-76
2021/09/19 12:24:43;;;;;;;5.40;0.93;;;;;;;;;;5053104;28;20032;-76
2021/09/19 12:27:11;;;;;;;3.13;1.05;;;;;;;;;;5053289;28;20029;-76
2021/09/19 12:29:37;;;;;;;4.85;1.50;;;;;;;;;;5052919;28;20512;-76
2021/09/19 12:32:02;;;;;;;4.25;1.05;;;;;;;;;;5053011;28;20013;-76
2021/09/19 12:34:28;;;;;;;6.05;1.40;;;;;;;;;;5053336;28;20075;-76
2021/09/19 12:36:54;;;;;;;4.63;1.45;;;;;;;;;;5052983;28;20037;-77
2021/09/19 12:39:21;;;;;;;5.35;1.77;;;;;;;;;;5053291;28;20063;-76
2021/09/19 12:41:48;;;;;;;10.68;1.83;;;;;;;;;;5053163;28;20124;-76
2021/09/19 12:44:18;;;;;;;7.43;2.25;;;;;;;;;;5053230;28;20377;-76
2021/09/19 12:46:48;;;;;;;14.20;2.80;;;;;;;;;;5053681;28;20021;-76
2021/09/19 12:49:17;;;;;;;4.88;1.63;;;;;;;;;;5057266;28;20124;-77
2021/09/19 12:51:59;;;;;;;5.40;2.10;;;;;;;;;;5057068;28;20033;-76
2021/09/19 12:54:24;;;;;;;9.85;2.92;;;;;;;;;;5057199;28;20100;-76
2021/09/19 12:56:49;;;;;;;12.15;3.72;;;;;;;;;;5057311;28;20041;-76
2021/09/19 12:59:14;;;;;;;6.47;2.80;;;;;;;;;;5057091;28;20056;-76
2021/09/19 13:01:40;;;;;;;8.07;2.80;;;;;;;;;;5053417;28;20032;-76
2021/09/19 13:04:05;;;;;;;6.35;2.60;;;;;;;;;;5056578;28;20032;-76
2021/09/19 13:06:30;;;;;;;4.88;2.33;;;;;;;;;;5053274;28;21011;-77
2021/09/19 13:08:56;;;;;;;7.65;2.50;;;;;;;;;;5056693;28;20045;-76
2021/09/19 13:11:21;;;;;;;8.57;2.70;;;;;;;;;;5057260;28;20128;-76
2021/09/19 13:13:46;;;;;;;5.90;2.65;;;;;;;;;;5056809;28;20492;-76
2021/09/19 13:16:11;;;;;;;9.80;2.55;;;;;;;;;;5056352;28;20052;-76
2021/09/19 13:18:37;;;;;;;13.57;2.72;;;;;;;;;;5056499;28;20039;-76
2021/09/19 13:21:02;;;;;;;7.43;2.58;;;;;;;;;;5056522;28;20021;-77
2021/09/19 13:23:28;;;;;;;7.25;2.13;;;;;;;;;;5056831;28;20029;-76
2021/09/19 13:25:53;;;;;;;6.88;2.40;;;;;;;;;;5056795;28;20420;-75
2021/09/19 13:28:18;;;;;;;4.85;1.60;;;;;;;;;;5056295;28;20033;-76
2021/09/19 13:30:43;;;;;;;2.53;1.77;;;;;;;;;;5056274;28;20033;-76
2021/09/19 13:33:09;;;;;;;2.92;1.10;;;;;;;;;;5055955;28;20044;-75
2021/09/19 13:35:35;;;;;;;5.15;1.20;;;;;;;;;;5056306;28;20017;-75
2021/09/19 13:38:00;;;;;;;2.22;1.00;;;;;;;;;;5056050;28;20116;-76
2021/09/19 13:40:25;;;;;;;1.67;0.70;;;;;;;;;;5056118;28;20061;-75
2021/09/19 13:42:50;;;;;;;3.08;1.02;;;;;;;;;;5056283;28;20021;-75
2021/09/19 13:45:17;;;;;;;2.40;0.60;;;;;;;;;;5056227;28;20033;-76
2021/09/19 13:47:42;;;;;;;3.65;0.85;;;;;;;;;;5055841;28;20060;-75
2021/09/19 13:50:08;;;;;;;2.05;0.60;;;;;;;;;;5055867;28;20056;-75
2021/09/19 13:52:33;;;;;;;1.33;0.80;;;;;;;;;;5056198;28;20071;-76
2021/09/19 13:54:58;;;;;;;2.17;0.80;;;;;;;;;;5056160;28;20063;-75
2021/09/19 13:57:23;;;;;;;1.73;0.63;;;;;;;;;;5055903;28;20104;-76
2021/09/19 13:59:49;;;;;;;1.10;0.77;;;;;;;;;;5055101;28;20029;-75
2021/09/19 14:02:14;;;;;;;1.85;0.63;;;;;;;;;;5055897;28;20497;-75
2021/09/19 14:04:40;;;;;;;4.82;0.85;;;;;;;;;;5055898;28;20454;-75
2021/09/19 14:07:05;;;;;;;3.08;0.65;;;;;;;;;;5055736;28;20021;-76
2021/09/19 14:09:30;;;;;;;2.70;1.38;;;;;;;;;;5055757;28;20508;-75
2021/09/19 14:11:56;;;;;;;3.10;0.77;;;;;;;;;;5055727;28;20104;-75
2021/09/19 14:14:21;;;;;;;3.88;0.95;;;;;;;;;;5055313;28;20111;-75
2021/09/19 14:16:47;;;;;;;2.35;0.77;;;;;;;;;;5055509;28;20048;-76
2021/09/19 14:19:12;;;;;;;2.10;0.70;;;;;;;;;;5055486;28;20020;-76
2021/09/19 14:21:37;;;;;;;5.75;0.93;;;;;;;;;;5055290;28;20083;-76
2021/09/19 14:24:05;;;;;;;4.10;0.73;;;;;;;;;;5054220;28;20033;-75
2021/09/19 14:26:31;;;;;;;4.55;0.75;;;;;;;;;;5055522;28;20024;-75
2021/09/19 14:28:56;;;;;;;5.28;1.05;;;;;;;;;;5049465;28;20045;-76